Custer, SD

10:09 AM MST on February 08, 2016 (GMT -0700)
RAWS | | Change Station
CLOSE
Current Station
Personal Weather Station
Location: Fairburn, SD
Elevation: 3950 ft
Nearby Weather Stations

Elev 3950 ft 43.73 °N, 103.35 °W | Updated 1 day ago

Partly Cloudy
Partly Cloudy
36 °F
Feels Like 25 °F
N
18
Wind Variable Wind from North
Gusts 33 mph

Today
High -- | Low -- °F
--% Chance of Precip.
Yesterday
High -- | Low -- °F
Precip. -- in
Pressure 30.39 in
Visibility 10.0 miles
Clouds Clear
Windchill 25 °F
Dew Point 10 °F
Humidity 33%
Rainfall in
Snow Depth Not available.
7:02 AM 5:13 PM
New Moon, 0% visible
METAR KCUT 081653Z AUTO 32007G16KT 290V360 10SM CLR M01/M17 A3027 RMK AO2 SLP289 T10111167
Pressure 30.39 in
Visibility 10.0 miles
Clouds Clear
Windchill 25 °F
Dew Point 10 °F
Humidity 33%
Rainfall in
Snow Depth Not available.
7:02 AM 5:13 PM
New Moon, 0% visible
METAR KCUT 081653Z AUTO 32007G16KT 290V360 10SM CLR M01/M17 A3027 RMK AO2 SLP289 T10111167

10-Day Weather Forecast

Almanac

Astronomy

Feb. 08, 2016 Rise Set
Actual Time
Civil Twilight
Nautical Twilight
Astronomical Twilight
Moon
Length of Visible Light
Length of Day
Tomorrow will be .
, % of the Moon is Illuminated

Today's Extremes

State Highs State Lows

Community

WunderPhotos

Upload Photos

1,891,471 photos uploaded!

WunderBlog® & News

Nearby

Air Quality

  Air Quality AQ Index Pollutant
Not available.

Snow Depth

Station Depth Elevation

Earthquake Activity

City Distance Mag. Time & Date
Minimum magnitude displayed is 2.5.

Coastal Water Temperatures

Place Temperature

Stations

Nearby Weather Stations

Station Location Temp. Windchill Dew Point Humidity Wind Precip. Elev Updated Type
                   

Watches & Warnings

There are currently no watches in effect.